createdAt,value
2022-11-05T00:00:38.696Z,100344.78
2022-11-05T00:03:24.603Z,100344.91
2022-11-05T00:06:12.352Z,100343.13
2022-11-05T00:09:00.342Z,100351.00
2022-11-05T00:11:45.621Z,100360.25
2022-11-05T00:14:31.418Z,100355.16
2022-11-05T00:16:58.035Z,100358.84
2022-11-05T00:19:24.660Z,100359.06
2022-11-05T00:22:09.961Z,100353.66
2022-11-05T00:24:55.343Z,100352.31
2022-11-05T00:27:22.032Z,100356.94
2022-11-05T00:29:48.657Z,100363.88
2022-11-05T00:32:15.358Z,100362.06
2022-11-05T00:34:41.992Z,100360.34
2022-11-05T00:37:11.478Z,100366.44
2022-11-05T00:39:38.128Z,100366.72
2022-11-05T00:42:23.901Z,100364.88
2022-11-05T00:45:02.891Z,100358.75
2022-11-05T00:48:11.827Z,100369.81
2022-11-05T00:50:38.503Z,100369.47
2022-11-05T00:53:06.896Z,100378.31
2022-11-05T00:55:45.157Z,100373.59
2022-11-05T00:58:15.688Z,100375.06
2022-11-05T01:00:53.299Z,100372.78
2022-11-05T01:03:26.575Z,100377.41
2022-11-05T01:05:58.295Z,100378.63
2022-11-05T01:08:27.912Z,100389.09
2022-11-05T01:10:58.604Z,100384.97
2022-11-05T01:13:33.333Z,100394.06
2022-11-05T01:16:09.856Z,100398.91
2022-11-05T01:18:39.114Z,100396.03
2022-11-05T01:21:15.724Z,100396.16
2022-11-05T01:23:42.939Z,100398.09
2022-11-05T01:26:09.959Z,100404.66
2022-11-05T01:28:36.698Z,100404.66
2022-11-05T01:31:03.566Z,100405.38
2022-11-05T01:33:37.990Z,100393.97
2022-11-05T01:36:06.265Z,100401.03
2022-11-05T01:38:32.966Z,100398.00
2022-11-05T01:40:59.572Z,100395.78
2022-11-05T01:43:26.238Z,100394.19
2022-11-05T01:45:58.794Z,100388.38
2022-11-05T01:48:35.519Z,100386.56
2022-11-05T01:51:14.764Z,100391.78
2022-11-05T01:54:04.758Z,100387.53
2022-11-05T01:56:45.055Z,100386.94
2022-11-05T01:59:35.011Z,100396.91
2022-11-05T02:02:05.586Z,100399.22
2022-11-05T02:04:41.555Z,100392.41
2022-11-05T02:07:14.335Z,100393.75
2022-11-05T02:10:06.509Z,100388.53
2022-11-05T02:12:37.505Z,100396.28
2022-11-05T02:15:06.099Z,100392.16
2022-11-05T02:18:34.539Z,100392.31
2022-11-05T02:21:41.185Z,100404.09
2022-11-05T02:24:56.391Z,100409.53
2022-11-05T02:27:58.461Z,100404.06
2022-11-05T02:31:01.790Z,100401.88
2022-11-05T02:33:56.637Z,100401.50
2022-11-05T02:36:46.414Z,100403.69
2022-11-05T02:39:48.920Z,100393.72
2022-11-05T02:43:17.414Z,100400.41
2022-11-05T02:46:18.049Z,100397.38
2022-11-05T02:48:52.496Z,100396.78
2022-11-05T02:52:03.193Z,100397.63
2022-11-05T02:55:10.328Z,100394.25
2022-11-05T02:57:37.653Z,100397.88
2022-11-05T03:00:42.996Z,100394.47
2022-11-05T03:03:29.582Z,100404.09
2022-11-05T03:06:43.060Z,100402.47
2022-11-05T03:09:43.186Z,100405.41
2022-11-05T03:13:07.111Z,100404.06
2022-11-05T03:15:59.958Z,100406.50
2022-11-05T03:19:06.788Z,100414.78
2022-11-05T03:22:15.285Z,100419.72
2022-11-05T03:24:55.447Z,100411.94
2022-11-05T03:27:40.850Z,100412.19
2022-11-05T03:30:14.337Z,100417.44
2022-11-05T03:32:54.820Z,100415.00
2022-11-05T03:35:35.216Z,100414.03
2022-11-05T03:38:12.899Z,100421.06
2022-11-05T03:40:44.802Z,100413.31
2022-11-05T03:43:14.562Z,100415.13
2022-11-05T03:45:53.672Z,100418.41
2022-11-05T03:48:29.306Z,100426.16
2022-11-05T03:51:19.560Z,100430.66
2022-11-05T03:54:07.509Z,100436.53
2022-11-05T03:57:09.006Z,100436.38
2022-11-05T03:59:47.912Z,100442.06
2022-11-05T04:02:20.169Z,100439.31
2022-11-05T04:04:47.824Z,100443.06
2022-11-05T04:07:33.769Z,100446.84
2022-11-05T04:10:19.089Z,100443.28
2022-11-05T04:13:04.356Z,100448.16
2022-11-05T04:15:54.161Z,100448.88
2022-11-05T04:18:23.980Z,100457.16
2022-11-05T04:21:09.031Z,100457.25
2022-11-05T04:23:54.563Z,100468.06
2022-11-05T04:26:23.328Z,100461.50
2022-11-05T04:29:10.988Z,100466.09
2022-11-05T04:31:38.611Z,100464.63
2022-11-05T04:34:05.906Z,100464.44
2022-11-05T04:36:35.564Z,100459.69
2022-11-05T04:39:04.996Z,100461.50
2022-11-05T04:41:34.726Z,100462.84
2022-11-05T04:44:01.474Z,100465.38
2022-11-05T04:46:28.266Z,100467.09
2022-11-05T04:48:54.899Z,100463.44
2022-11-05T04:51:21.624Z,100465.75
2022-11-05T04:53:48.266Z,100474.00
2022-11-05T04:56:25.507Z,100474.38
2022-11-05T04:58:52.955Z,100470.38
2022-11-05T05:01:25.220Z,100476.94
2022-11-05T05:03:54.250Z,100471.84
2022-11-05T05:06:24.879Z,100481.31
2022-11-05T05:08:52.355Z,100477.81
2022-11-05T05:11:22.660Z,100479.38
2022-11-05T05:13:50.511Z,100481.59
2022-11-05T05:16:33.872Z,100480.72
2022-11-05T06:59:10.130Z,100542.34
2022-11-05T07:01:37.610Z,100547.53
2022-11-05T07:04:05.163Z,100554.13
2022-11-05T07:11:54.981Z,100562.75
2022-11-05T09:03:42.575Z,100631.25
2022-11-05T09:06:12.140Z,100627.44
2022-11-05T09:08:38.927Z,100628.69
2022-11-05T09:11:05.974Z,100626.25
2022-11-05T09:13:32.667Z,100624.81
2022-11-05T09:15:59.993Z,100632.47
2022-11-05T09:18:26.909Z,100632.88
2022-11-05T09:20:53.806Z,100632.47
2022-11-05T09:23:20.603Z,100631.13
2022-11-05T09:25:47.940Z,100639.63
2022-11-05T09:28:22.123Z,100637.69
2022-11-05T09:30:57.039Z,100645.13
2022-11-05T09:33:27.472Z,100639.53
2022-11-05T09:35:54.423Z,100644.78
2022-11-05T09:38:26.181Z,100648.72
2022-11-05T09:41:09.219Z,100654.91
2022-11-05T09:43:49.058Z,100658.78
2022-11-05T09:46:25.563Z,100658.75
2022-11-05T09:49:04.292Z,100650.53
2022-11-05T14:33:26.385Z,100689.78
2022-11-05T14:36:20.356Z,100691.72
2022-11-05T14:39:00.033Z,100701.78
2022-11-05T17:13:28.610Z,100743.06
2022-11-05T17:15:56.653Z,100741.97
2022-11-05T17:18:24.202Z,100739.84
2022-11-05T17:20:55.305Z,100741.09
2022-11-05T17:23:26.763Z,100738.56
2022-11-05T17:26:01.852Z,100742.53
2022-11-05T17:58:17.528Z,100732.09
2022-11-05T18:06:07.549Z,100746.97
2022-11-05T18:43:32.382Z,100747.94
2022-11-05T18:45:59.206Z,100737.91
2022-11-05T18:48:26.080Z,100742.28
2022-11-05T18:53:33.400Z,100741.44
2022-11-05T19:41:57.706Z,100741.09
2022-11-05T19:44:28.723Z,100736.44
2022-11-05T19:46:55.552Z,100740.69
